createdAt,value
2018-10-02T00:00:43.667Z,2.70
2018-10-02T00:01:43.644Z,2.40
2018-10-02T00:02:43.632Z,2.40
2018-10-02T00:03:43.620Z,2.60
2018-10-02T00:04:43.609Z,2.30
2018-10-02T00:05:43.615Z,2.20
2018-10-02T00:06:43.588Z,2.50
2018-10-02T00:07:43.580Z,2.80
2018-10-02T00:08:43.566Z,2.30
2018-10-02T00:09:43.599Z,2.40
2018-10-02T00:10:43.544Z,2.40
2018-10-02T00:11:43.533Z,2.70
2018-10-02T00:12:43.525Z,2.40
2018-10-02T00:13:43.511Z,2.20
2018-10-02T00:14:43.500Z,2.80
2018-10-02T00:15:43.504Z,2.70
2018-10-02T00:16:43.478Z,2.90
2018-10-02T00:17:43.468Z,2.60
2018-10-02T00:18:43.459Z,3.10
2018-10-02T00:19:43.468Z,2.90
2018-10-02T00:20:43.434Z,2.60
2018-10-02T00:21:43.423Z,2.60
2018-10-02T00:22:43.416Z,3.00
2018-10-02T00:23:43.402Z,2.30
2018-10-02T00:24:43.391Z,2.60
2018-10-02T00:25:43.420Z,2.90
2018-10-02T00:26:43.369Z,2.50
2018-10-02T00:27:43.357Z,2.80
2018-10-02T00:28:44.111Z,2.30
2018-10-02T00:29:43.336Z,2.50
2018-10-02T00:30:43.325Z,2.40
2018-10-02T00:31:43.391Z,2.60
2018-10-02T00:32:43.302Z,2.20
2018-10-02T00:33:44.111Z,2.60
2018-10-02T00:34:43.280Z,2.70
2018-10-02T00:35:43.311Z,2.10
2018-10-02T00:36:43.261Z,2.30
2018-10-02T00:37:43.249Z,2.30
2018-10-02T00:38:43.240Z,2.40
2018-10-02T00:39:43.226Z,3.00
2018-10-02T00:40:43.217Z,2.70
2018-10-02T00:41:43.216Z,2.90
2018-10-02T00:42:43.198Z,2.50
2018-10-02T00:43:43.185Z,2.80
2018-10-02T00:44:43.192Z,2.40
2018-10-02T00:45:43.177Z,2.50
2018-10-02T00:46:43.157Z,2.50
2018-10-02T00:47:43.144Z,3.00
2018-10-02T00:48:43.129Z,2.50
2018-10-02T00:49:43.132Z,2.50
2018-10-02T00:50:43.107Z,2.70
2018-10-02T00:51:43.111Z,2.10
2018-10-02T00:52:43.086Z,2.30
2018-10-02T00:53:43.075Z,2.50
2018-10-02T00:54:43.107Z,2.60
2018-10-02T00:55:43.053Z,3.00
2018-10-02T00:56:43.043Z,2.70
2018-10-02T00:57:43.032Z,2.40
2018-10-02T00:58:43.019Z,2.50
2018-10-02T00:59:43.009Z,2.70
2018-10-02T01:00:43.013Z,2.70
2018-10-02T01:01:42.987Z,2.60
2018-10-02T01:02:43.027Z,2.60
2018-10-02T01:03:42.966Z,2.40
2018-10-02T01:04:42.954Z,2.60
2018-10-02T01:05:42.976Z,2.70
2018-10-02T01:06:42.932Z,2.70
2018-10-02T01:07:42.922Z,2.60
2018-10-02T01:08:42.911Z,2.50
2018-10-02T01:09:42.900Z,3.00
2018-10-02T01:10:42.889Z,3.30
2018-10-02T01:11:42.900Z,2.80
2018-10-02T01:12:42.866Z,3.10
2018-10-02T01:13:42.855Z,2.80
2018-10-02T01:14:42.845Z,2.80
2018-10-02T01:15:42.840Z,2.90
2018-10-02T01:16:42.825Z,2.80
2018-10-02T01:17:42.826Z,2.80
2018-10-02T01:18:42.802Z,2.50
2018-10-02T01:19:42.791Z,2.50
2018-10-02T01:20:42.820Z,3.20
2018-10-02T01:21:42.770Z,2.70
2018-10-02T01:22:42.759Z,2.80
2018-10-02T01:23:42.747Z,3.00
2018-10-02T01:24:42.738Z,2.40
2018-10-02T01:25:42.725Z,2.50
2018-10-02T01:26:42.734Z,2.80
2018-10-02T01:27:42.703Z,2.50
2018-10-02T01:28:42.692Z,2.70
2018-10-02T01:29:42.681Z,2.80
2018-10-02T01:30:42.686Z,3.00
2018-10-02T01:31:42.658Z,2.70
2018-10-02T01:32:42.686Z,2.70
2018-10-02T01:33:42.638Z,3.00
2018-10-02T01:34:42.625Z,2.70
2018-10-02T01:35:42.620Z,2.80
2018-10-02T01:36:42.605Z,3.00
2018-10-02T01:37:42.593Z,3.00
2018-10-02T01:38:42.596Z,2.60
2018-10-02T01:39:42.582Z,2.70
2018-10-02T01:40:42.561Z,2.90
2018-10-02T01:41:42.549Z,2.80
2018-10-02T01:42:42.541Z,2.90
2018-10-02T01:43:42.528Z,3.10
2018-10-02T01:44:42.532Z,2.90
2018-10-02T01:45:42.508Z,3.20
2018-10-02T01:46:42.495Z,3.00
2018-10-02T01:47:42.487Z,2.80
2018-10-02T01:48:42.495Z,3.00
2018-10-02T01:49:42.463Z,2.70
2018-10-02T01:50:42.454Z,2.80
2018-10-02T01:51:42.440Z,3.10
2018-10-02T01:52:42.433Z,3.10
2018-10-02T01:53:42.419Z,2.90
2018-10-02T01:54:42.423Z,3.00
2018-10-02T01:55:42.397Z,3.30
2018-10-02T01:56:42.402Z,2.90
2018-10-02T01:57:42.374Z,3.20
2018-10-02T01:58:42.364Z,3.00
2018-10-02T01:59:42.354Z,3.30
2018-10-02T02:00:42.347Z,3.50
2018-10-02T02:01:42.365Z,3.50
2018-10-02T02:02:42.336Z,3.10
2018-10-02T02:03:42.310Z,3.40
2018-10-02T02:04:42.303Z,3.70
2018-10-02T02:05:42.295Z,3.70
2018-10-02T02:06:42.296Z,3.60
2018-10-02T02:07:42.283Z,3.80
2018-10-02T02:08:42.256Z,3.50
2018-10-02T02:09:42.244Z,4.00
2018-10-02T02:10:42.233Z,3.50
2018-10-02T02:11:42.223Z,3.60
2018-10-02T02:12:42.226Z,4.00
2018-10-02T02:13:42.234Z,3.70
2018-10-02T02:14:42.189Z,3.90
2018-10-02T02:15:42.179Z,3.50
2018-10-02T02:16:42.169Z,3.50
2018-10-02T02:17:42.172Z,3.70
2018-10-02T02:18:42.161Z,4.10
2018-10-02T02:19:42.136Z,3.60
2018-10-02T02:20:42.123Z,3.70
2018-10-02T02:21:42.128Z,3.90
2018-10-02T02:22:42.121Z,3.60
2018-10-02T02:23:42.091Z,3.80
2018-10-02T02:24:42.098Z,3.60
2018-10-02T02:25:42.086Z,4.30
2018-10-02T02:26:42.060Z,4.60
2018-10-02T02:27:42.050Z,4.40
2018-10-02T02:28:42.053Z,4.20
2018-10-02T02:29:42.039Z,4.10
2018-10-02T02:30:42.017Z,3.80
2018-10-02T02:31:42.020Z,3.70
2018-10-02T02:32:41.995Z,4.20
2018-10-02T02:33:41.985Z,4.20
2018-10-02T02:34:42.031Z,3.50
2018-10-02T02:35:41.963Z,3.40
2018-10-02T02:36:41.962Z,4.00
2018-10-02T02:37:41.942Z,4.20
2018-10-02T02:38:41.931Z,4.10
2018-10-02T02:39:41.920Z,4.10
2018-10-02T02:40:41.928Z,3.90
2018-10-02T02:41:41.901Z,4.10
2018-10-02T02:42:41.887Z,3.60
2018-10-02T02:43:41.876Z,3.90
2018-10-02T02:44:41.865Z,4.00
2018-10-02T02:45:41.855Z,4.20
2018-10-02T02:46:41.899Z,4.60
2018-10-02T02:47:41.837Z,4.60
2018-10-02T02:48:41.822Z,4.40
2018-10-02T02:49:41.812Z,4.50
2018-10-02T02:50:41.804Z,4.70
2018-10-02T02:51:41.789Z,4.80
2018-10-02T02:52:41.899Z,5.30
2018-10-02T02:53:41.769Z,4.80
2018-10-02T02:54:41.757Z,5.00
2018-10-02T02:55:41.749Z,4.60
2018-10-02T02:56:41.735Z,5.60
2018-10-02T02:57:41.738Z,5.80
2018-10-02T02:58:41.713Z,5.70
2018-10-02T02:59:41.707Z,6.00
2018-10-02T03:00:41.692Z,5.80
2018-10-02T03:01:41.681Z,6.10
2018-10-02T03:02:41.688Z,5.40
2018-10-02T03:03:41.659Z,5.70
2018-10-02T03:04:41.649Z,5.90
2018-10-02T03:05:41.638Z,6.00
2018-10-02T03:06:41.627Z,6.50
2018-10-02T03:07:41.616Z,5.90
2018-10-02T03:08:41.639Z,6.40
2018-10-02T03:09:41.594Z,6.00
2018-10-02T03:10:41.584Z,6.20
2018-10-02T03:11:41.578Z,6.10
2018-10-02T03:12:41.562Z,6.40
2018-10-02T03:13:41.551Z,6.30
2018-10-02T03:14:41.551Z,6.10
2018-10-02T03:15:41.530Z,6.70
2018-10-02T03:16:41.519Z,6.30
2018-10-02T03:17:41.508Z,6.00
2018-10-02T03:18:41.497Z,7.20
2018-10-02T03:19:41.500Z,6.20
2018-10-02T03:20:41.474Z,5.90
2018-10-02T03:21:41.529Z,5.90
2018-10-02T03:22:41.473Z,6.70
2018-10-02T03:23:41.441Z,5.90
2018-10-02T03:24:41.445Z,6.20
2018-10-02T03:25:41.446Z,7.00
2018-10-02T03:26:41.409Z,5.80
2018-10-02T03:27:41.401Z,6.60
2018-10-02T03:28:41.391Z,6.40
2018-10-02T03:29:41.378Z,6.10
2018-10-02T03:30:41.385Z,6.90
2018-10-02T03:31:41.356Z,6.10
2018-10-02T03:32:41.346Z,7.00
2018-10-02T03:33:41.334Z,6.40
2018-10-02T03:34:41.325Z,7.10
2018-10-02T03:35:41.313Z,6.50
2018-10-02T03:36:41.314Z,6.50
2018-10-02T03:37:41.365Z,5.80
2018-10-02T03:38:41.280Z,6.40
2018-10-02T03:39:41.269Z,6.00
2018-10-02T03:40:41.300Z,6.10
2018-10-02T03:41:41.248Z,6.20
2018-10-02T03:42:41.237Z,6.40
2018-10-02T03:43:41.226Z,6.40
2018-10-02T03:44:41.215Z,6.30
2018-10-02T03:45:41.203Z,6.30
2018-10-02T03:46:41.208Z,6.30
2018-10-02T03:47:41.183Z,6.40
2018-10-02T03:48:41.221Z,6.20
2018-10-02T03:49:41.163Z,6.30
2018-10-02T03:50:41.150Z,6.70
2018-10-02T03:51:41.153Z,7.00
2018-10-02T03:52:41.129Z,6.70
2018-10-02T03:53:41.118Z,6.70
2018-10-02T03:54:41.108Z,7.20
2018-10-02T03:55:41.097Z,6.90
2018-10-02T03:56:41.101Z,7.10
2018-10-02T03:57:41.089Z,7.80
2018-10-02T03:58:41.074Z,7.80
2018-10-02T03:59:41.052Z,7.50
2018-10-02T04:00:41.042Z,6.90
2018-10-02T04:01:41.030Z,7.10
2018-10-02T04:02:41.020Z,6.90
2018-10-02T04:03:41.133Z,7.50
2018-10-02T04:04:40.999Z,7.20
2018-10-02T04:05:40.987Z,6.80
2018-10-02T04:06:40.976Z,7.30
2018-10-02T04:07:40.965Z,8.10
2018-10-02T04:08:40.959Z,7.30
2018-10-02T04:09:40.968Z,8.20
2018-10-02T04:10:40.933Z,8.10
2018-10-02T04:11:40.923Z,8.40
2018-10-02T04:12:40.912Z,7.70
2018-10-02T04:13:40.901Z,8.20
2018-10-02T04:14:40.886Z,7.80
2018-10-02T04:15:40.891Z,7.30
2018-10-02T04:16:40.868Z,7.50
2018-10-02T04:17:40.861Z,8.00
2018-10-02T04:18:40.845Z,7.30
2018-10-02T04:19:40.845Z,7.90
2018-10-02T04:20:40.911Z,8.70
2018-10-02T04:21:40.812Z,8.50
2018-10-02T04:22:40.839Z,8.90
2018-10-02T04:23:40.793Z,8.20
2018-10-02T04:24:40.782Z,8.50
2018-10-02T04:25:40.771Z,8.50
2018-10-02T04:26:40.758Z,8.80
2018-10-02T04:27:40.809Z,8.30
2018-10-02T04:28:40.748Z,8.90
2018-10-02T04:29:40.739Z,8.50
2018-10-02T04:30:40.720Z,8.80
2018-10-02T04:31:40.708Z,8.80
2018-10-02T04:32:40.709Z,8.60
2018-10-02T04:33:40.732Z,8.20
2018-10-02T04:34:40.674Z,9.00
2018-10-02T04:35:40.660Z,9.00
2018-10-02T04:36:40.654Z,9.20
2018-10-02T04:37:40.679Z,8.80
2018-10-02T04:38:40.628Z,9.00
2018-10-02T04:39:40.621Z,9.00
2018-10-02T04:40:40.607Z,9.00
2018-10-02T04:41:40.596Z,9.30
2018-10-02T04:42:40.585Z,9.00
2018-10-02T04:43:40.583Z,8.20
2018-10-02T04:44:40.563Z,8.90
2018-10-02T04:45:40.552Z,9.00
2018-10-02T04:46:40.604Z,9.10
2018-10-02T04:47:40.531Z,9.90
2018-10-02T04:48:40.520Z,9.10
2018-10-02T04:49:40.509Z,9.40
2018-10-02T04:50:40.509Z,9.10
2018-10-02T04:51:40.509Z,8.60
2018-10-02T04:52:40.533Z,8.90
2018-10-02T04:53:40.470Z,9.30
2018-10-02T04:54:40.519Z,8.90
2018-10-02T04:55:40.511Z,9.40
2018-10-02T04:56:40.433Z,9.40
2018-10-02T04:57:40.423Z,10.00
2018-10-02T04:58:40.429Z,10.90
2018-10-02T04:59:40.400Z,9.20
2018-10-02T05:00:40.432Z,9.40
2018-10-02T05:01:40.380Z,9.60
2018-10-02T05:02:40.369Z,9.70
2018-10-02T05:03:40.358Z,10.20
2018-10-02T05:04:40.348Z,9.30
2018-10-02T05:05:40.337Z,9.30
2018-10-02T05:06:40.354Z,10.30
2018-10-02T05:07:40.315Z,9.60
2018-10-02T05:08:40.333Z,10.10
2018-10-02T05:09:40.293Z,10.50
2018-10-02T05:10:40.282Z,10.00
2018-10-02T05:11:40.271Z,10.20
2018-10-02T05:12:40.273Z,11.10
2018-10-02T05:13:40.248Z,12.10
2018-10-02T05:14:40.238Z,12.20
2018-10-02T05:15:40.226Z,11.80
2018-10-02T05:16:40.217Z,11.60
2018-10-02T05:17:40.223Z,12.50
2018-10-02T05:18:40.194Z,11.90
2018-10-02T05:19:40.183Z,12.30
2018-10-02T05:20:40.231Z,11.80
2018-10-02T05:21:40.164Z,10.80
2018-10-02T05:22:40.165Z,11.30
2018-10-02T05:23:40.140Z,10.90
2018-10-02T05:24:40.130Z,11.20
2018-10-02T05:25:40.118Z,12.00
2018-10-02T05:26:40.108Z,11.50
2018-10-02T05:27:40.287Z,11.20
2018-10-02T05:28:40.085Z,12.10
2018-10-02T05:29:40.090Z,11.60
2018-10-02T05:30:40.067Z,12.70
2018-10-02T05:31:40.054Z,11.20
2018-10-02T05:32:40.042Z,12.00
2018-10-02T05:33:40.100Z,12.30
2018-10-02T05:34:40.033Z,11.20
2018-10-02T05:35:40.013Z,10.40
2018-10-02T05:36:39.999Z,10.70
2018-10-02T05:37:40.002Z,9.90
2018-10-02T05:38:39.975Z,10.20
2018-10-02T05:39:39.966Z,9.40
2018-10-02T05:40:39.968Z,9.90
2018-10-02T05:41:39.953Z,10.20
2018-10-02T05:42:39.961Z,9.00
2018-10-02T05:43:39.921Z,8.80
2018-10-02T05:44:39.911Z,8.20
2018-10-02T05:45:39.913Z,8.70
2018-10-02T05:46:39.888Z,8.00
2018-10-02T05:47:39.876Z,8.00
2018-10-02T05:48:39.866Z,7.70
2018-10-02T05:49:39.855Z,7.40
2018-10-02T05:50:39.931Z,7.00
2018-10-02T05:51:39.832Z,6.90
2018-10-02T05:52:39.822Z,6.90
2018-10-02T05:53:39.813Z,6.30
2018-10-02T05:54:39.801Z,6.80
2018-10-02T05:55:39.802Z,6.70
2018-10-02T05:56:39.778Z,7.00
2018-10-02T05:57:39.766Z,7.10
2018-10-02T05:58:39.758Z,6.70
2018-10-02T05:59:39.745Z,7.40
2018-10-02T06:00:39.755Z,6.70
2018-10-02T06:01:39.723Z,6.70
2018-10-02T06:02:39.727Z,7.10
2018-10-02T06:03:39.762Z,6.70
2018-10-02T06:04:39.690Z,6.10
2018-10-02T06:05:39.679Z,6.10
2018-10-02T06:06:39.684Z,7.10
2018-10-02T06:07:39.657Z,7.10
2018-10-02T06:08:39.645Z,5.80
2018-10-02T06:09:39.636Z,7.30
2018-10-02T06:10:39.624Z,6.60
2018-10-02T06:11:39.613Z,7.00
2018-10-02T06:12:39.618Z,6.40
2018-10-02T06:13:39.604Z,6.60
2018-10-02T06:14:39.580Z,6.00
2018-10-02T06:15:39.571Z,6.30
2018-10-02T06:16:39.563Z,7.40
2018-10-02T06:17:39.565Z,6.50
2018-10-02T06:18:39.569Z,7.10
2018-10-02T06:19:39.527Z,6.30
2018-10-02T06:20:39.518Z,7.50
2018-10-02T06:21:39.543Z,6.90
2018-10-02T06:22:39.495Z,6.70
2018-10-02T06:23:39.481Z,6.90
2018-10-02T06:24:39.515Z,6.90
2018-10-02T06:25:39.458Z,7.20
2018-10-02T06:26:39.451Z,7.20
2018-10-02T06:27:39.450Z,6.60
2018-10-02T06:28:39.425Z,6.60
2018-10-02T06:29:39.414Z,7.30
2018-10-02T06:30:39.404Z,7.00
2018-10-02T06:31:39.394Z,7.30
2018-10-02T06:32:39.407Z,7.50
2018-10-02T06:33:39.370Z,7.80
2018-10-02T06:34:39.360Z,7.80
2018-10-02T06:35:39.357Z,7.50
2018-10-02T06:36:39.395Z,7.50
2018-10-02T06:37:39.327Z,7.50
2018-10-02T06:38:39.416Z,7.50
2018-10-02T06:39:39.333Z,7.40
2018-10-02T06:40:39.293Z,7.60
2018-10-02T06:41:39.282Z,7.40
2018-10-02T06:42:39.272Z,7.50
2018-10-02T06:43:39.401Z,7.60
2018-10-02T06:44:39.323Z,6.30
2018-10-02T06:45:39.255Z,7.70
2018-10-02T06:46:39.227Z,8.40
2018-10-02T06:47:39.218Z,8.50
2018-10-02T06:48:39.606Z,8.30
2018-10-02T06:49:39.235Z,7.10
2018-10-02T06:50:39.315Z,7.70
2018-10-02T06:51:39.214Z,8.20
2018-10-02T06:52:39.530Z,7.70
2018-10-02T06:53:39.151Z,7.50
2018-10-02T06:54:39.152Z,8.40
2018-10-02T06:55:39.129Z,7.90
2018-10-02T06:56:39.149Z,8.30
2018-10-02T06:57:39.107Z,8.00
2018-10-02T06:58:39.114Z,7.30
2018-10-02T06:59:39.085Z,8.10
2018-10-02T07:00:39.103Z,9.00
2018-10-02T07:01:39.063Z,7.70
2018-10-02T07:02:39.093Z,7.10
2018-10-02T07:03:39.041Z,8.50
2018-10-02T07:04:39.045Z,9.30
2018-10-02T07:05:39.018Z,7.10
2018-10-02T07:06:39.048Z,8.50
2018-10-02T07:07:38.999Z,7.40
2018-10-02T07:08:39.057Z,6.90
2018-10-02T07:09:38.989Z,8.70
2018-10-02T07:10:38.968Z,7.90
2018-10-02T07:11:38.996Z,7.00
2018-10-02T07:12:39.006Z,7.30
2018-10-02T07:13:38.933Z,7.80
2018-10-02T07:14:38.934Z,7.00
2018-10-02T07:15:38.973Z,7.50
2018-10-02T07:16:38.903Z,7.10
2018-10-02T07:17:38.990Z,8.10
2018-10-02T07:18:38.884Z,8.60
2018-10-02T07:19:38.868Z,7.80
2018-10-02T07:20:38.986Z,7.30
2018-10-02T07:21:38.867Z,6.40
2018-10-02T07:22:38.834Z,7.00
2018-10-02T07:23:38.845Z,7.90
2018-10-02T07:24:38.829Z,7.10
2018-10-02T07:25:38.803Z,7.00
2018-10-02T07:26:38.914Z,7.30
2018-10-02T07:27:38.923Z,5.90
2018-10-02T07:28:38.771Z,7.30
2018-10-02T07:29:38.775Z,7.40
2018-10-02T07:30:38.877Z,7.70
2018-10-02T07:31:38.745Z,7.50
2018-10-02T07:32:38.830Z,6.90
2018-10-02T07:33:38.727Z,8.20
2018-10-02T07:34:38.704Z,7.80
2018-10-02T07:35:38.695Z,7.50
2018-10-02T07:36:38.741Z,8.60
2018-10-02T07:37:38.685Z,8.80
2018-10-02T07:38:38.784Z,8.30
2018-10-02T07:39:38.663Z,8.00
2018-10-02T07:40:38.643Z,8.60
2018-10-02T07:41:38.718Z,8.30
2018-10-02T07:42:38.663Z,7.90
2018-10-02T07:43:38.606Z,8.40
2018-10-02T07:44:38.721Z,6.90
2018-10-02T07:45:38.585Z,8.50
2018-10-02T07:46:38.575Z,8.30
2018-10-02T07:47:38.683Z,8.20
2018-10-02T07:48:38.553Z,6.90
2018-10-02T07:49:38.544Z,8.70
2018-10-02T07:50:38.647Z,7.40
2018-10-02T07:51:38.521Z,9.30
2018-10-02T07:52:38.512Z,8.70
2018-10-02T07:53:38.583Z,8.40
2018-10-02T07:54:38.488Z,8.60
2018-10-02T07:55:38.723Z,9.40
2018-10-02T07:56:38.552Z,9.40
2018-10-02T07:57:38.457Z,8.10
2018-10-02T07:58:38.446Z,8.90
2018-10-02T07:59:38.512Z,8.60
2018-10-02T08:00:38.424Z,8.90
2018-10-02T08:01:38.452Z,8.40
2018-10-02T08:02:38.450Z,8.80
2018-10-02T08:03:38.393Z,8.70
2018-10-02T08:04:38.437Z,7.80
2018-10-02T08:05:38.381Z,8.80
2018-10-02T08:06:38.359Z,7.70
2018-10-02T08:07:38.363Z,8.80
2018-10-02T08:08:38.476Z,9.10
2018-10-02T08:09:38.327Z,6.40
2018-10-02T08:10:38.318Z,9.30
2018-10-02T08:11:38.405Z,9.00
2018-10-02T08:12:38.294Z,8.80
2018-10-02T08:13:38.392Z,8.70
2018-10-02T08:14:38.343Z,9.00
2018-10-02T08:15:38.269Z,9.30
2018-10-02T08:16:38.251Z,9.10
2018-10-02T08:17:38.269Z,8.50
2018-10-02T08:18:38.230Z,8.60
2018-10-02T08:19:38.233Z,8.20
2018-10-02T08:20:38.215Z,8.80
2018-10-02T08:21:38.237Z,8.30
2018-10-02T08:22:38.189Z,7.80
2018-10-02T08:23:38.267Z,7.40
2018-10-02T08:24:38.165Z,7.90
2018-10-02T08:25:38.154Z,7.70
2018-10-02T08:26:38.231Z,7.80
2018-10-02T08:27:38.145Z,9.00
2018-10-02T08:28:38.144Z,7.30
2018-10-02T08:29:38.219Z,7.60
2018-10-02T08:30:38.113Z,8.60
2018-10-02T08:31:38.089Z,8.80
2018-10-02T08:32:38.097Z,8.70
2018-10-02T08:33:38.065Z,7.70
2018-10-02T08:34:38.056Z,6.50
2018-10-02T08:35:38.120Z,7.40
2018-10-02T08:36:38.167Z,8.10
2018-10-02T08:37:38.023Z,7.50
2018-10-02T08:38:38.088Z,7.60
2018-10-02T08:39:38.001Z,8.20
2018-10-02T08:40:37.990Z,8.60
2018-10-02T08:41:37.994Z,5.20
2018-10-02T08:42:37.969Z,6.70
2018-10-02T08:43:38.072Z,6.80
2018-10-02T08:44:37.973Z,6.60
2018-10-02T08:45:37.936Z,6.70
2018-10-02T08:46:37.938Z,6.70
2018-10-02T08:47:37.980Z,6.70
2018-10-02T08:48:37.904Z,7.10
2018-10-02T08:49:37.893Z,7.40
2018-10-02T08:50:37.992Z,6.80
2018-10-02T08:51:37.942Z,6.80
2018-10-02T08:52:37.860Z,7.10
2018-10-02T08:53:37.852Z,7.60
2018-10-02T08:54:37.856Z,6.40
2018-10-02T08:55:37.829Z,6.20
2018-10-02T08:56:37.832Z,5.90
2018-10-02T08:57:37.822Z,6.90
2018-10-02T08:58:37.795Z,6.20
2018-10-02T08:59:37.786Z,6.60
2018-10-02T09:00:37.839Z,6.80
2018-10-02T09:01:37.763Z,6.20
2018-10-02T09:02:37.774Z,6.90
2018-10-02T09:03:37.742Z,6.20
2018-10-02T09:04:37.732Z,5.70
2018-10-02T09:05:37.720Z,5.50
2018-10-02T09:06:37.803Z,6.20
2018-10-02T09:07:37.701Z,6.10
2018-10-02T09:08:37.703Z,6.00
2018-10-02T09:09:37.677Z,6.30
2018-10-02T09:10:37.669Z,7.10
2018-10-02T09:11:37.655Z,6.00
2018-10-02T09:12:37.744Z,6.40
2018-10-02T09:13:37.731Z,7.00
2018-10-02T09:14:37.622Z,6.30
2018-10-02T09:15:37.712Z,6.70
2018-10-02T09:16:37.739Z,6.40
2018-10-02T09:17:37.604Z,6.90
2018-10-02T09:18:37.709Z,7.00
2018-10-02T09:19:37.583Z,7.50
2018-10-02T09:20:37.630Z,6.00
2018-10-02T09:21:37.594Z,7.30
2018-10-02T09:22:37.548Z,7.50
2018-10-02T09:23:37.528Z,6.20
2018-10-02T09:24:37.554Z,7.00
2018-10-02T09:25:37.502Z,6.90
2018-10-02T09:26:37.491Z,8.90
2018-10-02T09:27:37.583Z,6.70
2018-10-02T09:28:37.523Z,8.10
2018-10-02T09:29:37.459Z,6.80
2018-10-02T09:30:37.460Z,6.40
2018-10-02T09:31:37.437Z,6.80
2018-10-02T09:32:37.427Z,6.70
2018-10-02T09:33:37.516Z,8.10
2018-10-02T09:34:37.404Z,8.10
2018-10-02T09:35:37.393Z,6.60
2018-10-02T09:36:37.462Z,6.60
2018-10-02T09:37:37.372Z,8.10
2018-10-02T09:38:37.374Z,7.70
2018-10-02T09:39:37.437Z,8.70
2018-10-02T09:40:37.379Z,7.00
2018-10-02T09:41:37.331Z,8.80
2018-10-02T09:42:37.369Z,7.00
2018-10-02T09:43:37.407Z,8.30
2018-10-02T09:44:37.295Z,8.40
2018-10-02T09:45:37.300Z,10.20
2018-10-02T09:46:37.287Z,7.10
2018-10-02T09:47:37.265Z,8.70
2018-10-02T09:48:37.287Z,9.30
2018-10-02T09:49:37.257Z,9.80
2018-10-02T09:50:37.306Z,9.70
2018-10-02T09:51:37.267Z,9.90
2018-10-02T09:52:37.221Z,9.70
2018-10-02T09:53:37.199Z,9.50
2018-10-02T09:54:37.206Z,9.80
2018-10-02T09:55:37.176Z,10.70
2018-10-02T09:56:37.202Z,11.60
2018-10-02T09:57:37.154Z,10.80
2018-10-02T09:58:37.260Z,10.50
2018-10-02T09:59:37.146Z,10.30
2018-10-02T10:00:37.144Z,10.30
2018-10-02T10:01:37.112Z,9.30
2018-10-02T10:02:37.160Z,9.70
2018-10-02T10:03:37.090Z,10.10
2018-10-02T10:04:37.100Z,10.30
2018-10-02T10:05:37.067Z,10.90
2018-10-02T10:06:37.057Z,10.80
2018-10-02T10:07:37.047Z,10.70
2018-10-02T10:08:37.036Z,10.90
2018-10-02T10:09:37.025Z,11.00
2018-10-02T10:10:37.082Z,10.10
2018-10-02T10:11:37.002Z,8.80
2018-10-02T10:12:36.993Z,10.20
2018-10-02T10:13:36.981Z,10.20
2018-10-02T10:14:36.971Z,11.90
2018-10-02T10:15:36.960Z,10.40
2018-10-02T10:16:37.053Z,10.60
2018-10-02T10:17:36.937Z,12.00
2018-10-02T10:18:36.929Z,10.40
2018-10-02T10:19:36.959Z,11.10
2018-10-02T10:20:36.906Z,10.60
2018-10-02T10:21:36.921Z,11.40
2018-10-02T10:22:36.995Z,10.80
2018-10-02T10:23:36.872Z,12.10
2018-10-02T10:24:36.862Z,11.60
2018-10-02T10:25:36.865Z,11.30
2018-10-02T10:26:36.919Z,12.70
2018-10-02T10:27:36.828Z,12.30
2018-10-02T10:28:37.715Z,8.70
2018-10-02T10:29:36.806Z,11.20
2018-10-02T10:30:36.817Z,10.40
2018-10-02T10:31:36.786Z,10.00
2018-10-02T10:32:36.775Z,11.90
2018-10-02T10:33:36.826Z,12.30
2018-10-02T10:34:36.836Z,10.40
2018-10-02T10:35:36.742Z,11.60
2018-10-02T10:36:36.754Z,11.20
2018-10-02T10:37:36.721Z,10.90
2018-10-02T10:38:36.710Z,11.60
2018-10-02T10:39:36.699Z,10.70
2018-10-02T10:40:36.766Z,12.00
2018-10-02T10:41:36.678Z,12.70
2018-10-02T10:42:36.681Z,11.60
2018-10-02T10:43:36.657Z,10.70
2018-10-02T10:44:36.646Z,11.90
2018-10-02T10:45:36.634Z,13.90
2018-10-02T10:46:36.689Z,11.80
2018-10-02T10:47:36.642Z,12.20
2018-10-02T10:48:36.601Z,10.60
2018-10-02T10:49:36.607Z,13.10
2018-10-02T10:50:36.599Z,12.80
2018-10-02T10:51:36.569Z,12.70
2018-10-02T10:52:36.644Z,11.80
2018-10-02T10:53:36.547Z,13.00
2018-10-02T10:54:36.539Z,12.80
2018-10-02T10:55:36.525Z,12.90
2018-10-02T10:56:36.595Z,12.60
2018-10-02T10:57:36.523Z,11.70
2018-10-02T10:58:36.523Z,12.30
2018-10-02T10:59:36.481Z,10.30
2018-10-02T11:00:36.471Z,12.10
2018-10-02T11:01:36.461Z,12.60
2018-10-02T11:02:36.449Z,12.70
2018-10-02T11:03:36.477Z,12.10
2018-10-02T11:04:36.437Z,11.20
2018-10-02T11:05:36.418Z,11.20
2018-10-02T11:06:36.407Z,9.10
2018-10-02T11:07:36.395Z,12.80
2018-10-02T11:08:36.385Z,11.20
2018-10-02T11:09:36.395Z,11.90
2018-10-02T11:10:36.365Z,10.30
2018-10-02T11:11:36.353Z,12.20
2018-10-02T11:12:36.345Z,12.60
2018-10-02T11:13:36.347Z,12.80
2018-10-02T11:14:36.323Z,12.80
2018-10-02T11:15:36.309Z,12.70
2018-10-02T11:16:36.313Z,12.20
2018-10-02T11:17:36.302Z,12.90
2018-10-02T11:18:36.275Z,13.40
2018-10-02T11:19:36.315Z,11.90
2018-10-02T11:20:36.267Z,11.60
2018-10-02T11:21:36.243Z,11.70
2018-10-02T11:22:36.245Z,12.70
2018-10-02T11:23:36.221Z,13.50
2018-10-02T11:24:36.223Z,13.30
2018-10-02T11:25:36.212Z,13.30
2018-10-02T11:26:36.187Z,11.60
2018-10-02T11:27:36.178Z,12.20
2018-10-02T11:28:36.166Z,12.50
2018-10-02T11:29:36.174Z,12.10
2018-10-02T11:30:36.144Z,13.30
2018-10-02T11:31:36.147Z,13.60
2018-10-02T11:32:36.122Z,13.40
2018-10-02T11:33:36.124Z,13.50
2018-10-02T11:34:36.101Z,12.10
2018-10-02T11:35:36.190Z,11.00
2018-10-02T11:36:36.076Z,13.50
2018-10-02T11:37:36.071Z,11.70
2018-10-02T11:38:36.100Z,12.50
2018-10-02T11:39:36.045Z,11.70
2018-10-02T11:40:36.049Z,12.00
2018-10-02T11:41:36.023Z,11.50
2018-10-02T11:42:36.024Z,12.00
2018-10-02T11:43:36.034Z,11.60
2018-10-02T11:44:36.029Z,12.00
2018-10-02T11:45:35.978Z,12.60
2018-10-02T11:46:35.969Z,12.30
2018-10-02T11:47:35.956Z,13.20
2018-10-02T11:48:35.947Z,11.80
2018-10-02T11:49:36.212Z,12.60
2018-10-02T11:50:35.923Z,10.30
2018-10-02T11:51:35.912Z,11.40
2018-10-02T11:52:35.899Z,12.10
2018-10-02T11:53:35.889Z,11.90
2018-10-02T11:54:35.895Z,11.60
2018-10-02T11:55:35.905Z,11.80
2018-10-02T11:56:35.856Z,11.90
2018-10-02T11:57:35.908Z,9.60
2018-10-02T11:58:35.835Z,11.90
2018-10-02T11:59:35.851Z,11.50
2018-10-02T12:00:35.905Z,10.10
2018-10-02T12:01:35.801Z,12.00
2018-10-02T12:02:35.808Z,11.40
2018-10-02T12:03:35.847Z,8.60
2018-10-02T12:04:35.767Z,10.50
2018-10-02T12:05:35.771Z,10.60
2018-10-02T12:06:35.754Z,10.50
2018-10-02T12:07:35.749Z,10.80
2018-10-02T12:08:35.722Z,11.00
2018-10-02T12:09:35.711Z,10.00
2018-10-02T12:10:35.700Z,10.00
2018-10-02T12:11:35.760Z,10.30
2018-10-02T12:12:35.691Z,9.60
2018-10-02T12:13:35.795Z,9.60
2018-10-02T12:14:35.695Z,10.40
2018-10-02T12:15:35.658Z,10.50
2018-10-02T12:16:35.633Z,11.50
2018-10-02T12:17:35.621Z,9.90
2018-10-02T12:18:35.610Z,10.70
2018-10-02T12:19:35.742Z,11.50
2018-10-02T12:20:35.601Z,10.70
2018-10-02T12:21:35.578Z,11.30
2018-10-02T12:22:35.568Z,9.70
2018-10-02T12:23:35.620Z,12.00
2018-10-02T12:24:35.544Z,12.40
2018-10-02T12:25:35.548Z,13.00
2018-10-02T12:26:35.522Z,11.50
2018-10-02T12:27:35.510Z,10.90
2018-10-02T12:28:35.500Z,13.80
2018-10-02T12:29:35.512Z,14.20
2018-10-02T12:30:35.478Z,12.80
2018-10-02T12:31:35.469Z,13.30
2018-10-02T12:32:35.455Z,12.00
2018-10-02T12:33:35.444Z,13.70
2018-10-02T12:34:35.433Z,14.00
2018-10-02T12:35:35.441Z,12.70
2018-10-02T12:36:35.410Z,11.50
2018-10-02T12:37:35.400Z,14.30
2018-10-02T12:38:35.450Z,14.30
2018-10-02T12:39:35.397Z,15.60
2018-10-02T12:40:35.369Z,15.40
2018-10-02T12:41:35.355Z,16.70
2018-10-02T12:42:35.347Z,16.00
2018-10-02T12:43:35.333Z,16.90
2018-10-02T12:44:35.342Z,16.00
2018-10-02T12:45:35.311Z,15.70
2018-10-02T12:46:35.298Z,15.70
2018-10-02T12:47:35.288Z,16.40
2018-10-02T12:48:35.277Z,16.00
2018-10-02T12:49:35.267Z,12.30
2018-10-02T12:50:35.268Z,16.10
2018-10-02T12:51:35.243Z,15.10
2018-10-02T12:52:35.354Z,16.90
2018-10-02T12:53:35.221Z,16.90
2018-10-02T12:54:35.209Z,17.50
2018-10-02T12:55:35.224Z,17.80
2018-10-02T12:56:35.187Z,12.60
2018-10-02T12:57:35.193Z,16.40
2018-10-02T12:58:35.191Z,16.30
2018-10-02T12:59:35.165Z,16.80
2018-10-02T13:00:35.169Z,16.90
2018-10-02T13:01:35.141Z,15.90
2018-10-02T13:02:35.141Z,15.10
2018-10-02T13:03:35.108Z,16.20
2018-10-02T13:04:35.097Z,16.80
2018-10-02T13:05:35.089Z,16.90
2018-10-02T13:06:35.075Z,16.80
2018-10-02T13:07:35.099Z,17.20
2018-10-02T13:08:35.054Z,17.10
2018-10-02T13:09:35.042Z,17.30
2018-10-02T13:10:35.031Z,17.30
2018-10-02T13:11:35.020Z,16.60